sensor_id;sensor_type;location;lat;lon;timestamp;pressure;altitude;pressure_sealevel;temperature;humidity
34674;BME280;20879;55.668;37.858;2023-07-29T00:02:19;98742.50;;;15.63;100.00
34674;BME280;20879;55.668;37.858;2023-07-29T00:04:56;98764.75;;;15.88;100.00
34674;BME280;20879;55.668;37.858;2023-07-29T00:07:29;98759.19;;;15.94;100.00
34674;BME280;20879;55.668;37.858;2023-07-29T00:09:59;98765.22;;;15.96;99.98
34674;BME280;20879;55.668;37.858;2023-07-29T00:12:30;98757.78;;;16.04;99.22
34674;BME280;20879;55.668;37.858;2023-07-29T00:15:00;98758.63;;;15.89;99.36
34674;BME280;20879;55.668;37.858;2023-07-29T00:17:30;98752.78;;;15.84;99.85
34674;BME280;20879;55.668;37.858;2023-07-29T00:20:02;98764.16;;;15.83;100.00
34674;BME280;20879;55.668;37.858;2023-07-29T00:22:36;98732.44;;;15.73;100.00
34674;BME280;20879;55.668;37.858;2023-07-29T00:25:09;98756.34;;;15.83;100.00
34674;BME280;20879;55.668;37.858;2023-07-29T00:27:39;98752.47;;;15.72;100.00
34674;BME280;20879;55.668;37.858;2023-07-29T00:30:09;98760.16;;;15.76;100.00
34674;BME280;20879;55.668;37.858;2023-07-29T00:32:46;98759.16;;;15.78;100.00
34674;BME280;20879;55.668;37.858;2023-07-29T00:35:23;98755.69;;;15.78;100.00
34674;BME280;20879;55.668;37.858;2023-07-29T00:37:53;98760.91;;;15.78;100.00
34674;BME280;20879;55.668;37.858;2023-07-29T00:40:22;98759.44;;;15.72;100.00
34674;BME280;20879;55.668;37.858;2023-07-29T00:42:58;98758.78;;;15.68;100.00
34674;BME280;20879;55.668;37.858;2023-07-29T00:45:29;98745.09;;;15.63;100.00
34674;BME280;20879;55.668;37.858;2023-07-29T00:48:06;98756.31;;;15.65;100.00
34674;BME280;20879;55.668;37.858;2023-07-29T00:50:38;98750.09;;;15.68;100.00
34674;BME280;20879;55.668;37.858;2023-07-29T00:53:10;98749.09;;;15.70;100.00
34674;BME280;20879;55.668;37.858;2023-07-29T00:55:45;98737.44;;;15.60;100.00
34674;BME280;20879;55.668;37.858;2023-07-29T00:58:15;98741.66;;;15.63;100.00
34674;BME280;20879;55.668;37.858;2023-07-29T01:00:46;98758.41;;;15.59;100.00
34674;BME280;20879;55.668;37.858;2023-07-29T01:03:18;98756.78;;;15.56;100.00
34674;BME280;20879;55.668;37.858;2023-07-29T01:06:04;98745.59;;;15.54;100.00
34674;BME280;20879;55.668;37.858;2023-07-29T01:08:49;98748.03;;;15.57;100.00
34674;BME280;20879;55.668;37.858;2023-07-29T01:11:36;98749.09;;;15.53;100.00
34674;BME280;20879;55.668;37.858;2023-07-29T01:14:17;98751.28;;;15.45;100.00
34674;BME280;20879;55.668;37.858;2023-07-29T01:16:57;98723.59;;;15.42;100.00
34674;BME280;20879;55.668;37.858;2023-07-29T01:19:43;98752.72;;;15.33;100.00
34674;BME280;20879;55.668;37.858;2023-07-29T01:22:21;98751.50;;;15.40;100.00
34674;BME280;20879;55.668;37.858;2023-07-29T01:24:56;98744.97;;;15.31;100.00
34674;BME280;20879;55.668;37.858;2023-07-29T01:27:31;98739.63;;;15.34;100.00
34674;BME280;20879;55.668;37.858;2023-07-29T01:30:04;98734.09;;;15.41;100.00
34674;BME280;20879;55.668;37.858;2023-07-29T01:32:41;98705.78;;;15.33;100.00
34674;BME280;20879;55.668;37.858;2023-07-29T01:35:24;98705.94;;;15.30;100.00
34674;BME280;20879;55.668;37.858;2023-07-29T01:38:01;98716.53;;;15.27;100.00
34674;BME280;20879;55.668;37.858;2023-07-29T01:40:34;98713.59;;;15.33;100.00
34674;BME280;20879;55.668;37.858;2023-07-29T01:43:14;98691.97;;;15.31;100.00
34674;BME280;20879;55.668;37.858;2023-07-29T01:45:48;98704.88;;;15.16;100.00
34674;BME280;20879;55.668;37.858;2023-07-29T01:48:18;98711.22;;;15.28;100.00
34674;BME280;20879;55.668;37.858;2023-07-29T01:50:50;98704.94;;;15.32;100.00
34674;BME280;20879;55.668;37.858;2023-07-29T01:53:20;98698.19;;;15.28;100.00
34674;BME280;20879;55.668;37.858;2023-07-29T01:55:52;98718.13;;;15.29;100.00
34674;BME280;20879;55.668;37.858;2023-07-29T01:58:25;98687.00;;;15.09;100.00
34674;BME280;20879;55.668;37.858;2023-07-29T02:00:55;98704.34;;;15.27;100.00
34674;BME280;20879;55.668;37.858;2023-07-29T02:03:27;98725.22;;;15.27;100.00
34674;BME280;20879;55.668;37.858;2023-07-29T02:05:57;98727.03;;;15.25;100.00
34674;BME280;20879;55.668;37.858;2023-07-29T02:08:34;98739.75;;;15.31;100.00
34674;BME280;20879;55.668;37.858;2023-07-29T02:11:07;98739.09;;;15.28;100.00
34674;BME280;20879;55.668;37.858;2023-07-29T02:13:37;98731.03;;;15.15;100.00
34674;BME280;20879;55.668;37.858;2023-07-29T02:16:07;98748.19;;;15.19;100.00
34674;BME280;20879;55.668;37.858;2023-07-29T02:18:38;98752.13;;;15.28;100.00
34674;BME280;20879;55.668;37.858;2023-07-29T02:21:08;98763.94;;;15.35;100.00
34674;BME280;20879;55.668;37.858;2023-07-29T02:23:40;98747.56;;;15.31;100.00
34674;BME280;20879;55.668;37.858;2023-07-29T02:26:12;98723.97;;;15.34;100.00
34674;BME280;20879;55.668;37.858;2023-07-29T02:28:41;98700.63;;;15.31;100.00
34674;BME280;20879;55.668;37.858;2023-07-29T02:31:16;98724.09;;;15.49;100.00
34674;BME280;20879;55.668;37.858;2023-07-29T02:33:47;98735.22;;;15.52;100.00
34674;BME280;20879;55.668;37.858;2023-07-29T02:36:23;98748.34;;;15.51;100.00
34674;BME280;20879;55.668;37.858;2023-07-29T02:39:07;98766.16;;;15.43;100.00
34674;BME280;20879;55.668;37.858;2023-07-29T02:41:42;98770.84;;;15.36;100.00
34674;BME280;20879;55.668;37.858;2023-07-29T02:44:13;98764.94;;;15.32;100.00
34674;BME280;20879;55.668;37.858;2023-07-29T02:46:45;98782.03;;;15.20;100.00
34674;BME280;20879;55.668;37.858;2023-07-29T02:49:15;98773.38;;;15.20;100.00
34674;BME280;20879;55.668;37.858;2023-07-29T02:51:45;98768.22;;;15.18;100.00
34674;BME280;20879;55.668;37.858;2023-07-29T02:54:17;98753.19;;;15.06;100.00
34674;BME280;20879;55.668;37.858;2023-07-29T02:56:58;98754.94;;;15.06;100.00
34674;BME280;20879;55.668;37.858;2023-07-29T02:59:29;98756.50;;;15.10;100.00
34674;BME280;20879;55.668;37.858;2023-07-29T03:01:59;98752.94;;;15.11;100.00
34674;BME280;20879;55.668;37.858;2023-07-29T03:04:31;98744.69;;;15.20;100.00
34674;BME280;20879;55.668;37.858;2023-07-29T03:07:04;98736.72;;;15.23;100.00
34674;BME280;20879;55.668;37.858;2023-07-29T03:09:39;98726.34;;;15.22;100.00
34674;BME280;20879;55.668;37.858;2023-07-29T03:12:11;98722.06;;;15.20;100.00
34674;BME280;20879;55.668;37.858;2023-07-29T03:14:57;98724.59;;;15.22;100.00
34674;BME280;20879;55.668;37.858;2023-07-29T03:17:34;98718.78;;;15.17;100.00
34674;BME280;20879;55.668;37.858;2023-07-29T03:20:08;98676.97;;;15.01;100.00
34674;BME280;20879;55.668;37.858;2023-07-29T03:22:38;98711.38;;;15.25;100.00
34674;BME280;20879;55.668;37.858;2023-07-29T03:25:19;98716.22;;;15.33;100.00
34674;BME280;20879;55.668;37.858;2023-07-29T03:27:51;98699.13;;;15.27;100.00
34674;BME280;20879;55.668;37.858;2023-07-29T03:30:21;98698.09;;;15.30;100.00
34674;BME280;20879;55.668;37.858;2023-07-29T03:32:52;98705.72;;;15.34;100.00
34674;BME280;20879;55.668;37.858;2023-07-29T03:35:23;98702.72;;;15.42;100.00
34674;BME280;20879;55.668;37.858;2023-07-29T03:37:54;98690.09;;;15.50;100.00
34674;BME280;20879;55.668;37.858;2023-07-29T03:40:26;98693.84;;;15.62;100.00
34674;BME280;20879;55.668;37.858;2023-07-29T03:43:01;98691.88;;;15.50;100.00
34674;BME280;20879;55.668;37.858;2023-07-29T03:45:42;98682.34;;;15.49;100.00
34674;BME280;20879;55.668;37.858;2023-07-29T03:48:13;98681.28;;;15.53;100.00
34674;BME280;20879;55.668;37.858;2023-07-29T03:50:50;98658.22;;;15.45;100.00
34674;BME280;20879;55.668;37.858;2023-07-29T03:53:19;98633.19;;;15.08;100.00
34674;BME280;20879;55.668;37.858;2023-07-29T03:55:49;98641.47;;;14.98;100.00
34674;BME280;20879;55.668;37.858;2023-07-29T03:58:27;98657.72;;;14.86;100.00
34674;BME280;20879;55.668;37.858;2023-07-29T04:01:00;98652.06;;;14.95;100.00
34674;BME280;20879;55.668;37.858;2023-07-29T04:03:34;98670.63;;;15.07;100.00
34674;BME280;20879;55.668;37.858;2023-07-29T04:06:05;98667.63;;;15.14;100.00
34674;BME280;20879;55.668;37.858;2023-07-29T04:08:39;98658.06;;;15.31;100.00
34674;BME280;20879;55.668;37.858;2023-07-29T04:11:17;98665.03;;;15.48;100.00
34674;BME280;20879;55.668;37.858;2023-07-29T04:13:48;98679.75;;;15.49;100.00
34674;BME280;20879;55.668;37.858;2023-07-29T04:16:25;98675.78;;;15.42;100.00
34674;BME280;20879;55.668;37.858;2023-07-29T04:19:01;98665.22;;;15.45;100.00
34674;BME280;20879;55.668;37.858;2023-07-29T04:21:31;98643.13;;;15.34;100.00
34674;BME280;20879;55.668;37.858;2023-07-29T04:24:01;98655.16;;;15.19;100.00
34674;BME280;20879;55.668;37.858;2023-07-29T04:26:31;98674.44;;;15.34;100.00
34674;BME280;20879;55.668;37.858;2023-07-29T04:29:04;98652.38;;;15.07;100.00
34674;BME280;20879;55.668;37.858;2023-07-29T04:31:40;98632.75;;;14.99;100.00
34674;BME280;20879;55.668;37.858;2023-07-29T04:34:10;98655.25;;;15.18;100.00
34674;BME280;20879;55.668;37.858;2023-07-29T04:36:41;98651.00;;;15.33;100.00
34674;BME280;20879;55.668;37.858;2023-07-29T04:39:12;98640.41;;;15.53;100.00
34674;BME280;20879;55.668;37.858;2023-07-29T04:41:43;98621.47;;;15.66;99.63
34674;BME280;20879;55.668;37.858;2023-07-29T04:44:29;98636.31;;;15.65;99.25
34674;BME280;20879;55.668;37.858;2023-07-29T04:47:01;98636.53;;;15.77;97.81
34674;BME280;20879;55.668;37.858;2023-07-29T04:49:33;98625.25;;;15.60;98.20
34674;BME280;20879;55.668;37.858;2023-07-29T04:52:03;98621.94;;;15.41;98.60
34674;BME280;20879;55.668;37.858;2023-07-29T04:54:37;98633.56;;;15.51;98.61
34674;BME280;20879;55.668;37.858;2023-07-29T04:57:08;98561.13;;;15.23;98.72
34674;BME280;20879;55.668;37.858;2023-07-29T04:59:55;98625.53;;;15.71;98.39
34674;BME280;20879;55.668;37.858;2023-07-29T05:02:25;98602.81;;;15.89;97.65
34674;BME280;20879;55.668;37.858;2023-07-29T05:04:55;98605.66;;;15.69;96.81
34674;BME280;20879;55.668;37.858;2023-07-29T05:07:25;98602.78;;;15.73;97.54
34674;BME280;20879;55.668;37.858;2023-07-29T05:09:54;98602.25;;;15.84;97.41
34674;BME280;20879;55.668;37.858;2023-07-29T05:12:29;98614.78;;;15.94;97.52
34674;BME280;20879;55.668;37.858;2023-07-29T05:15:01;98599.78;;;15.97;97.09
34674;BME280;20879;55.668;37.858;2023-07-29T05:17:38;98615.53;;;16.12;95.86
34674;BME280;20879;55.668;37.858;2023-07-29T05:20:09;98612.66;;;16.16;95.62
34674;BME280;20879;55.668;37.858;2023-07-29T05:22:50;98614.97;;;16.22;95.94
34674;BME280;20879;55.668;37.858;2023-07-29T05:25:26;98627.94;;;16.24;94.96
34674;BME280;20879;55.668;37.858;2023-07-29T05:27:56;98640.28;;;16.20;95.66
34674;BME280;20879;55.668;37.858;2023-07-29T05:30:31;98632.63;;;16.17;95.45
34674;BME280;20879;55.668;37.858;2023-07-29T05:33:07;98647.56;;;16.31;95.07
34674;BME280;20879;55.668;37.858;2023-07-29T05:35:44;98654.88;;;16.40;94.54
34674;BME280;20879;55.668;37.858;2023-07-29T05:38:17;98651.34;;;16.41;94.16
34674;BME280;20879;55.668;37.858;2023-07-29T05:40:54;98647.59;;;16.46;94.31
34674;BME280;20879;55.668;37.858;2023-07-29T05:43:28;98658.00;;;16.31;93.93
34674;BME280;20879;55.668;37.858;2023-07-29T05:46:02;98635.84;;;15.90;95.78
34674;BME280;20879;55.668;37.858;2023-07-29T05:48:40;98654.28;;;15.87;96.15
34674;BME280;20879;55.668;37.858;2023-07-29T05:51:10;98647.81;;;15.95;95.96
34674;BME280;20879;55.668;37.858;2023-07-29T05:53:41;98654.53;;;15.99;96.06
34674;BME280;20879;55.668;37.858;2023-07-29T05:56:11;98636.50;;;15.94;94.98
34674;BME280;20879;55.668;37.858;2023-07-29T05:59:05;98643.09;;;16.17;95.38
34674;BME280;20879;55.668;37.858;2023-07-29T06:01:38;98651.91;;;16.31;94.64
34674;BME280;20879;55.668;37.858;2023-07-29T06:04:13;98665.31;;;16.40;94.49
34674;BME280;20879;55.668;37.858;2023-07-29T06:06:52;98643.84;;;16.19;94.39
34674;BME280;20879;55.668;37.858;2023-07-29T06:09:27;98666.50;;;16.19;95.00
34674;BME280;20879;55.668;37.858;2023-07-29T06:11:57;98667.50;;;16.16;95.49
34674;BME280;20879;55.668;37.858;2023-07-29T06:14:39;98674.25;;;16.36;95.51
34674;BME280;20879;55.668;37.858;2023-07-29T06:17:13;98670.81;;;16.20;95.24
34674;BME280;20879;55.668;37.858;2023-07-29T06:19:43;98679.13;;;16.27;95.24
34674;BME280;20879;55.668;37.858;2023-07-29T06:22:13;98668.28;;;16.34;94.44
34674;BME280;20879;55.668;37.858;2023-07-29T06:24:43;98674.25;;;16.36;94.79
34674;BME280;20879;55.668;37.858;2023-07-29T06:27:13;98660.75;;;16.28;94.66
34674;BME280;20879;55.668;37.858;2023-07-29T06:29:43;98692.09;;;16.44;94.30
34674;BME280;20879;55.668;37.858;2023-07-29T06:32:15;98696.91;;;16.52;94.79
34674;BME280;20879;55.668;37.858;2023-07-29T06:34:44;98697.66;;;16.54;94.38
34674;BME280;20879;55.668;37.858;2023-07-29T06:37:14;98699.28;;;16.56;94.65
34674;BME280;20879;55.668;37.858;2023-07-29T06:39:45;98703.13;;;16.65;94.15
34674;BME280;20879;55.668;37.858;2023-07-29T06:42:15;98702.41;;;16.47;94.42
34674;BME280;20879;55.668;37.858;2023-07-29T06:44:44;98691.25;;;16.43;94.68
34674;BME280;20879;55.668;37.858;2023-07-29T06:47:17;98696.66;;;16.40;95.03
34674;BME280;20879;55.668;37.858;2023-07-29T06:49:49;98693.97;;;16.26;95.27
34674;BME280;20879;55.668;37.858;2023-07-29T06:52:20;98695.66;;;16.27;96.18
34674;BME280;20879;55.668;37.858;2023-07-29T06:54:49;98692.78;;;16.32;95.94
34674;BME280;20879;55.668;37.858;2023-07-29T06:57:29;98687.03;;;16.41;95.10
34674;BME280;20879;55.668;37.858;2023-07-29T07:00:03;98694.31;;;16.52;94.79
34674;BME280;20879;55.668;37.858;2023-07-29T07:02:37;98695.41;;;16.48;94.74
34674;BME280;20879;55.668;37.858;2023-07-29T07:05:10;98690.44;;;16.43;95.29
34674;BME280;20879;55.668;37.858;2023-07-29T07:07:40;98690.53;;;16.41;94.91
34674;BME280;20879;55.668;37.858;2023-07-29T07:10:17;98699.38;;;16.39;95.09
34674;BME280;20879;55.668;37.858;2023-07-29T07:12:48;98698.66;;;16.35;95.28
34674;BME280;20879;55.668;37.858;2023-07-29T07:15:17;98686.22;;;16.24;95.81
34674;BME280;20879;55.668;37.858;2023-07-29T07:17:49;98689.75;;;16.39;95.90
34674;BME280;20879;55.668;37.858;2023-07-29T07:20:21;98674.75;;;16.27;95.49
34674;BME280;20879;55.668;37.858;2023-07-29T07:22:51;98688.09;;;16.38;95.68
34674;BME280;20879;55.668;37.858;2023-07-29T07:25:23;98692.19;;;16.42;95.38
34674;BME280;20879;55.668;37.858;2023-07-29T07:27:53;98697.09;;;16.33;95.89
34674;BME280;20879;55.668;37.858;2023-07-29T07:30:35;98703.41;;;16.29;96.02
34674;BME280;20879;55.668;37.858;2023-07-29T07:33:16;98698.84;;;16.32;95.77
34674;BME280;20879;55.668;37.858;2023-07-29T07:35:51;98705.09;;;16.30;95.85
34674;BME280;20879;55.668;37.858;2023-07-29T07:38:34;98702.53;;;16.28;96.64
34674;BME280;20879;55.668;37.858;2023-07-29T07:41:04;98699.38;;;16.23;96.29
34674;BME280;20879;55.668;37.858;2023-07-29T07:43:42;98684.78;;;16.19;96.84
34674;BME280;20879;55.668;37.858;2023-07-29T07:46:15;98688.31;;;16.18;96.81
34674;BME280;20879;55.668;37.858;2023-07-29T07:48:49;98696.13;;;16.18;96.94
34674;BME280;20879;55.668;37.858;2023-07-29T07:51:26;98695.81;;;16.08;97.09
34674;BME280;20879;55.668;37.858;2023-07-29T07:53:56;98711.97;;;16.15;97.30
34674;BME280;20879;55.668;37.858;2023-07-29T07:56:26;98697.00;;;16.02;97.90
34674;BME280;20879;55.668;37.858;2023-07-29T07:58:58;98707.25;;;16.05;98.00
34674;BME280;20879;55.668;37.858;2023-07-29T08:01:28;98704.66;;;16.05;98.37
34674;BME280;20879;55.668;37.858;2023-07-29T08:04:11;98712.31;;;16.08;98.17
34674;BME280;20879;55.668;37.858;2023-07-29T08:06:42;98713.84;;;16.13;98.42
34674;BME280;20879;55.668;37.858;2023-07-29T08:09:14;98700.19;;;16.07;98.50
34674;BME280;20879;55.668;37.858;2023-07-29T08:11:44;98711.50;;;16.08;98.74
34674;BME280;20879;55.668;37.858;2023-07-29T08:14:13;98718.03;;;15.99;98.60
34674;BME280;20879;55.668;37.858;2023-07-29T08:16:44;98712.50;;;16.05;98.63
34674;BME280;20879;55.668;37.858;2023-07-29T08:19:15;98716.00;;;16.04;98.58
34674;BME280;20879;55.668;37.858;2023-07-29T08:21:50;98721.84;;;16.10;98.86
34674;BME280;20879;55.668;37.858;2023-07-29T08:24:23;98723.28;;;16.15;98.70
34674;BME280;20879;55.668;37.858;2023-07-29T08:26:53;98725.13;;;16.13;98.83
34674;BME280;20879;55.668;37.858;2023-07-29T08:29:23;98722.13;;;16.21;98.75
34674;BME280;20879;55.668;37.858;2023-07-29T08:31:57;98720.44;;;16.20;98.28
34674;BME280;20879;55.668;37.858;2023-07-29T08:34:29;98723.19;;;16.17;98.60
34674;BME280;20879;55.668;37.858;2023-07-29T08:36:59;98719.81;;;16.15;99.12
34674;BME280;20879;55.668;37.858;2023-07-29T08:39:38;98716.38;;;16.30;99.23
34674;BME280;20879;55.668;37.858;2023-07-29T08:42:11;98716.28;;;16.32;98.57
34674;BME280;20879;55.668;37.858;2023-07-29T08:44:44;98718.56;;;16.22;98.44
34674;BME280;20879;55.668;37.858;2023-07-29T08:47:15;98718.22;;;16.28;98.80
34674;BME280;20879;55.668;37.858;2023-07-29T08:49:47;98722.69;;;16.42;98.72
34674;BME280;20879;55.668;37.858;2023-07-29T08:52:20;98732.97;;;16.45;98.11
34674;BME280;20879;55.668;37.858;2023-07-29T08:54:52;98734.06;;;16.57;98.92
34674;BME280;20879;55.668;37.858;2023-07-29T08:57:36;98732.63;;;16.67;98.11
34674;BME280;20879;55.668;37.858;2023-07-29T09:00:09;98717.72;;;16.53;97.92
34674;BME280;20879;55.668;37.858;2023-07-29T09:02:42;98730.38;;;16.61;98.34
34674;BME280;20879;55.668;37.858;2023-07-29T09:05:20;98736.69;;;16.57;97.68
34674;BME280;20879;55.668;37.858;2023-07-29T09:07:51;98707.47;;;16.34;97.35
34674;BME280;20879;55.668;37.858;2023-07-29T09:10:24;98741.56;;;16.63;97.06
34674;BME280;20879;55.668;37.858;2023-07-29T09:12:56;98720.25;;;16.55;96.41
34674;BME280;20879;55.668;37.858;2023-07-29T09:15:30;98741.66;;;16.62;96.73
34674;BME280;20879;55.668;37.858;2023-07-29T09:18:09;98729.84;;;16.70;96.52
34674;BME280;20879;55.668;37.858;2023-07-29T09:20:48;98735.69;;;16.59;96.25
34674;BME280;20879;55.668;37.858;2023-07-29T09:23:21;98733.41;;;16.69;96.18
34674;BME280;20879;55.668;37.858;2023-07-29T09:26:00;98743.50;;;16.59;95.89
34674;BME280;20879;55.668;37.858;2023-07-29T09:28:36;98740.47;;;16.51;96.07
34674;BME280;20879;55.668;37.858;2023-07-29T09:31:20;98736.09;;;16.52;95.86
34674;BME280;20879;55.668;37.858;2023-07-29T09:33:56;98742.34;;;16.33;96.96
34674;BME280;20879;55.668;37.858;2023-07-29T09:36:31;98737.47;;;16.43;97.24
34674;BME280;20879;55.668;37.858;2023-07-29T09:39:11;98723.63;;;16.41;96.70
34674;BME280;20879;55.668;37.858;2023-07-29T09:41:47;98728.09;;;16.23;97.18
34674;BME280;20879;55.668;37.858;2023-07-29T09:44:17;98743.00;;;16.37;97.59
34674;BME280;20879;55.668;37.858;2023-07-29T09:46:48;98748.06;;;16.24;97.18
34674;BME280;20879;55.668;37.858;2023-07-29T09:49:19;98731.53;;;16.23;97.69
34674;BME280;20879;55.668;37.858;2023-07-29T09:51:51;98744.03;;;16.34;96.86
34674;BME280;20879;55.668;37.858;2023-07-29T09:54:22;98738.22;;;16.45;96.68
34674;BME280;20879;55.668;37.858;2023-07-29T09:56:54;98749.75;;;16.41;96.73
34674;BME280;20879;55.668;37.858;2023-07-29T09:59:26;98734.06;;;16.25;97.25
34674;BME280;20879;55.668;37.858;2023-07-29T10:01:57;98746.53;;;16.20;97.78
34674;BME280;20879;55.668;37.858;2023-07-29T10:04:27;98746.13;;;16.28;97.92
34674;BME280;20879;55.668;37.858;2023-07-29T10:07:02;98735.72;;;16.10;98.19
34674;BME280;20879;55.668;37.858;2023-07-29T10:09:45;98743.63;;;15.93;98.78
34674;BME280;20879;55.668;37.858;2023-07-29T10:12:15;98742.78;;;15.92;99.38
34674;BME280;20879;55.668;37.858;2023-07-29T10:14:47;98726.09;;;15.79;100.00
34674;BME280;20879;55.668;37.858;2023-07-29T10:17:23;98741.09;;;15.91;100.00
34674;BME280;20879;55.668;37.858;2023-07-29T10:19:56;98698.34;;;15.76;100.00
34674;BME280;20879;55.668;37.858;2023-07-29T10:22:34;98748.47;;;16.00;99.95
34674;BME280;20879;55.668;37.858;2023-07-29T10:25:16;98754.47;;;15.85;100.00
34674;BME280;20879;55.668;37.858;2023-07-29T10:37:52;98756.94;;;15.18;100.00
34674;BME280;20879;55.668;37.858;2023-07-29T10:40:24;98753.34;;;15.20;100.00
34674;BME280;20879;55.668;37.858;2023-07-29T10:43:02;98758.88;;;15.32;100.00
34674;BME280;20879;55.668;37.858;2023-07-29T10:45:41;98768.44;;;15.31;100.00
34674;BME280;20879;55.668;37.858;2023-07-29T10:48:42;98769.16;;;15.35;100.00
34674;BME280;20879;55.668;37.858;2023-07-29T10:51:29;98756.03;;;15.36;100.00
34674;BME280;20879;55.668;37.858;2023-07-29T10:58:15;98750.06;;;15.17;100.00
34674;BME280;20879;55.668;37.858;2023-07-29T11:01:29;98754.97;;;15.23;100.00
34674;BME280;20879;55.668;37.858;2023-07-29T11:04:28;98757.66;;;15.22;100.00
34674;BME280;20879;55.668;37.858;2023-07-29T11:07:21;98762.00;;;15.56;100.00
34674;BME280;20879;55.668;37.858;2023-07-29T11:10:03;98753.72;;;15.83;100.00
34674;BME280;20879;55.668;37.858;2023-07-29T11:12:46;98731.91;;;15.84;100.00
34674;BME280;20879;55.668;37.858;2023-07-29T11:15:23;98745.50;;;16.06;99.55
34674;BME280;20879;55.668;37.858;2023-07-29T11:17:56;98745.69;;;16.03;99.47
34674;BME280;20879;55.668;37.858;2023-07-29T11:20:30;98752.94;;;16.30;99.60
34674;BME280;20879;55.668;37.858;2023-07-29T11:23:07;98753.13;;;16.59;99.16
34674;BME280;20879;55.668;37.858;2023-07-29T11:25:51;98752.09;;;16.77;97.91
34674;BME280;20879;55.668;37.858;2023-07-29T11:28:25;98762.38;;;16.81;96.73
34674;BME280;20879;55.668;37.858;2023-07-29T11:30:58;98763.88;;;16.85;96.46
34674;BME280;20879;55.668;37.858;2023-07-29T11:33:29;98767.38;;;16.85;96.56
34674;BME280;20879;55.668;37.858;2023-07-29T11:36:01;98769.91;;;16.87;96.66
34674;BME280;20879;55.668;37.858;2023-07-29T11:38:54;98774.53;;;16.82;96.44
34674;BME280;20879;55.668;37.858;2023-07-29T11:41:30;98777.50;;;16.75;96.62
34674;BME280;20879;55.668;37.858;2023-07-29T11:44:02;98781.00;;;16.42;97.05
34674;BME280;20879;55.668;37.858;2023-07-29T11:46:35;98782.28;;;16.51;96.91
34674;BME280;20879;55.668;37.858;2023-07-29T11:59:44;98782.75;;;16.91;93.96
34674;BME280;20879;55.668;37.858;2023-07-29T12:02:33;98796.44;;;17.11;93.34
34674;BME280;20879;55.668;37.858;2023-07-29T12:05:28;98774.34;;;17.01;93.48
34674;BME280;20879;55.668;37.858;2023-07-29T12:08:20;98792.69;;;17.31;94.10
34674;BME280;20879;55.668;37.858;2023-07-29T12:11:03;98793.44;;;17.33;92.58
34674;BME280;20879;55.668;37.858;2023-07-29T12:13:36;98806.69;;;17.30;93.06
34674;BME280;20879;55.668;37.858;2023-07-29T12:16:37;98805.63;;;17.18;92.06
34674;BME280;20879;55.668;37.858;2023-07-29T12:19:17;98782.81;;;16.90;93.25
34674;BME280;20879;55.668;37.858;2023-07-29T12:21:51;98803.72;;;17.06;93.91
34674;BME280;20879;55.668;37.858;2023-07-29T12:27:13;98794.88;;;17.39;93.13
34674;BME280;20879;55.668;37.858;2023-07-29T12:29:51;98796.91;;;17.34;93.10
34674;BME280;20879;55.668;37.858;2023-07-29T12:32:25;98781.13;;;17.35;93.03
34674;BME280;20879;55.668;37.858;2023-07-29T12:34:58;98797.94;;;17.31;92.63
34674;BME280;20879;55.668;37.858;2023-07-29T12:37:34;98752.69;;;16.99;92.64
34674;BME280;20879;55.668;37.858;2023-07-29T12:40:07;98785.63;;;17.17;92.00
34674;BME280;20879;55.668;37.858;2023-07-29T12:50:08;98792.34;;;16.91;91.57
34674;BME280;20879;55.668;37.858;2023-07-29T12:52:39;98784.16;;;16.97;91.56
34674;BME280;20879;55.668;37.858;2023-07-29T12:55:14;98782.81;;;16.90;90.84
34674;BME280;20879;55.668;37.858;2023-07-29T12:57:53;98781.19;;;16.71;91.86
34674;BME280;20879;55.668;37.858;2023-07-29T13:00:30;98772.91;;;16.79;91.91
34674;BME280;20879;55.668;37.858;2023-07-29T13:25:14;98777.97;;;16.82;88.81
34674;BME280;20879;55.668;37.858;2023-07-29T13:28:13;98775.63;;;16.77;89.70
34674;BME280;20879;55.668;37.858;2023-07-29T13:30:50;98763.41;;;16.78;90.87
34674;BME280;20879;55.668;37.858;2023-07-29T14:08:59;98773.25;;;16.73;92.16
34674;BME280;20879;55.668;37.858;2023-07-29T14:11:50;98754.56;;;16.49;92.89
34674;BME280;20879;55.668;37.858;2023-07-29T14:14:24;98715.94;;;16.06;92.88
34674;BME280;20879;55.668;37.858;2023-07-29T14:16:57;98730.75;;;16.05;92.80
34674;BME280;20879;55.668;37.858;2023-07-29T14:19:32;98715.00;;;15.91;94.77
34674;BME280;20879;55.668;37.858;2023-07-29T14:22:05;98726.22;;;15.76;95.51
34674;BME280;20879;55.668;37.858;2023-07-29T14:24:39;98739.25;;;15.93;93.73
34674;BME280;20879;55.668;37.858;2023-07-29T14:27:10;98746.38;;;16.23;93.19
34674;BME280;20879;55.668;37.858;2023-07-29T14:29:40;98745.97;;;16.47;92.74
34674;BME280;20879;55.668;37.858;2023-07-29T14:32:15;98758.84;;;16.66;92.09
34674;BME280;20879;55.668;37.858;2023-07-29T14:34:52;98750.44;;;16.76;90.38
34674;BME280;20879;55.668;37.858;2023-07-29T14:37:22;98750.34;;;16.78;90.62
34674;BME280;20879;55.668;37.858;2023-07-29T14:39:56;98745.09;;;16.94;89.96
34674;BME280;20879;55.668;37.858;2023-07-29T14:42:31;98747.06;;;16.90;88.60
34674;BME280;20879;55.668;37.858;2023-07-29T14:45:13;98749.81;;;17.03;88.64
34674;BME280;20879;55.668;37.858;2023-07-29T14:47:48;98751.53;;;17.19;87.82
34674;BME280;20879;55.668;37.858;2023-07-29T14:50:20;98751.72;;;17.16;87.87
34674;BME280;20879;55.668;37.858;2023-07-29T14:52:52;98752.41;;;17.19;87.77
34674;BME280;20879;55.668;37.858;2023-07-29T14:55:30;98750.94;;;17.29;87.52
34674;BME280;20879;55.668;37.858;2023-07-29T14:58:04;98752.44;;;17.34;87.40